Time;durP1;ratioP1;P1;durP2;ratioP2;P2;SDS_P1;SDS_P2;PMS_P1;PMS_P2;Temp;Humidity;BMP_temperature;BMP_pressure;BME280_temperature;BME280_humidity;BME280_pressure;Samples;Min_cycle;Max_cycle;Signal;HPM_P1;HPM_P2
2022/09/01 00:01:07;;;;;;;26.50;23.70;;;14.90;99.90;;;;;;5029067;28;21001;-65
2022/09/01 00:03:35;;;;;;;22.80;20.70;;;14.80;99.90;;;;;;5028735;28;20480;-65
2022/09/01 00:06:02;;;;;;;24.33;21.73;;;14.80;99.90;;;;;;5029318;28;20457;-65
2022/09/01 00:08:29;;;;;;;23.67;21.37;;;14.80;99.90;;;;;;5028735;28;20453;-65
2022/09/01 00:10:56;;;;;;;23.70;21.30;;;14.80;99.90;;;;;;5028645;28;20821;-65
2022/09/01 00:13:23;;;;;;;26.33;23.83;;;14.80;99.90;;;;;;5028428;28;20476;-66
2022/09/01 00:15:50;;;;;;;24.70;22.40;;;14.80;99.90;;;;;;5028993;28;20480;-66
2022/09/01 00:18:17;;;;;;;25.33;22.83;;;14.80;99.90;;;;;;5028493;28;20949;-65
2022/09/01 00:20:45;;;;;;;25.63;23.23;;;14.70;99.90;;;;;;5028736;28;20541;-65
2022/09/01 00:23:12;;;;;;;24.10;21.87;;;14.70;99.90;;;;;;5027566;28;20476;-65
2022/09/01 00:25:38;;;;;;;22.87;20.67;;;14.60;99.90;;;;;;5028641;28;20455;-65
2022/09/01 00:28:05;;;;;;;26.07;23.40;;;14.60;99.90;;;;;;5023909;28;20613;-65
2022/09/01 00:30:32;;;;;;;24.47;22.07;;;14.60;99.90;;;;;;5028697;28;20529;-65
2022/09/01 00:32:59;;;;;;;22.63;20.57;;;14.50;99.90;;;;;;5028209;28;20475;-65
2022/09/01 00:35:26;;;;;;;24.50;22.13;;;14.50;99.90;;;;;;5028440;28;20890;-64
2022/09/01 00:37:54;;;;;;;23.77;21.57;;;14.50;99.90;;;;;;5028546;28;20527;-65
2022/09/01 00:40:21;;;;;;;24.90;22.57;;;14.50;99.90;;;;;;5028501;28;20449;-65
2022/09/01 00:42:49;;;;;;;24.77;22.40;;;14.50;99.90;;;;;;5028307;28;20473;-65
2022/09/01 00:45:15;;;;;;;25.33;22.90;;;14.50;99.90;;;;;;5028349;28;21049;-64
2022/09/01 00:47:43;;;;;;;25.53;22.97;;;14.50;99.90;;;;;;5028694;28;20528;-65
2022/09/01 00:50:12;;;;;;;25.53;23.13;;;14.50;99.90;;;;;;5028301;28;20461;-66
2022/09/01 00:52:43;;;;;;;26.57;23.97;;;14.50;99.90;;;;;;5027877;28;20475;-65
2022/09/01 00:55:16;;;;;;;25.80;23.33;;;14.50;99.90;;;;;;5027941;28;20595;-65
2022/09/01 00:57:43;;;;;;;25.30;22.83;;;14.50;99.90;;;;;;5027118;28;20857;-65
2022/09/01 01:00:19;;;;;;;23.87;21.67;;;14.50;99.90;;;;;;5027519;28;20993;-66
2022/09/01 01:02:47;;;;;;;24.10;21.80;;;14.50;99.90;;;;;;5027887;28;20546;-66
2022/09/01 01:05:15;;;;;;;23.67;21.37;;;14.50;99.90;;;;;;5027463;28;20485;-66
2022/09/01 01:07:43;;;;;;;24.73;22.43;;;14.50;99.90;;;;;;5027966;28;20464;-65
2022/09/01 01:10:14;;;;;;;22.43;20.27;;;14.50;99.90;;;;;;5027278;28;20459;-65
2022/09/01 01:12:42;;;;;;;24.30;21.67;;;14.60;99.90;;;;;;5027974;28;20559;-66
2022/09/01 01:15:10;;;;;;;22.47;20.40;;;14.60;99.90;;;;;;5027938;28;20457;-65
2022/09/01 01:17:37;;;;;;;22.90;20.67;;;14.50;99.90;;;;;;5022353;28;20833;-65
2022/09/01 01:23:05;;;;;;;23.87;21.47;;;14.50;99.90;;;;;;5021451;28;20471;-66
2022/09/01 01:25:37;;;;;;;21.50;19.40;;;14.50;99.90;;;;;;5028019;28;20488;-65
2022/09/01 01:28:07;;;;;;;23.00;21.00;;;14.40;99.90;;;;;;5029272;28;20448;-66
2022/09/01 01:30:35;;;;;;;22.27;20.03;;;14.40;99.90;;;;;;5029780;28;20449;-65
2022/09/01 01:33:04;;;;;;;23.83;21.57;;;14.40;99.90;;;;;;5024944;28;20472;-65
2022/09/01 01:35:32;;;;;;;25.17;22.80;;;14.30;99.90;;;;;;5031524;28;20845;-65
2022/09/01 01:38:00;;;;;;;25.00;22.70;;;14.30;99.90;;;;;;5033348;28;20444;-66
2022/09/01 01:40:28;;;;;;;24.00;21.57;;;14.30;99.90;;;;;;5033280;28;20445;-65
2022/09/01 01:42:57;;;;;;;23.97;21.77;;;14.30;99.90;;;;;;5033176;28;20472;-65
2022/09/01 01:45:25;;;;;;;22.57;20.27;;;14.40;99.90;;;;;;5033430;28;20550;-66
2022/09/01 01:47:53;;;;;;;23.27;20.93;;;14.30;99.90;;;;;;5033403;28;20448;-66
2022/09/01 01:50:20;;;;;;;23.60;21.40;;;14.20;99.90;;;;;;5033455;28;20456;-67
2022/09/01 01:52:47;;;;;;;25.23;22.70;;;14.20;99.90;;;;;;5033023;28;20470;-65
2022/09/01 01:55:18;;;;;;;24.07;21.87;;;14.10;99.90;;;;;;5033011;28;20453;-65
2022/09/01 01:57:48;;;;;;;24.07;21.87;;;14.10;99.90;;;;;;5033329;28;20462;-65
2022/09/01 02:00:20;;;;;;;25.43;23.13;;;14.10;99.90;;;;;;5033384;28;20464;-65
2022/09/01 02:02:51;;;;;;;25.97;23.43;;;14.00;99.90;;;;;;5032916;28;20468;-65
2022/09/01 02:05:23;;;;;;;26.63;24.00;;;14.10;99.90;;;;;;5032955;28;20480;-65
2022/09/01 02:07:54;;;;;;;28.13;25.33;;;14.00;99.90;;;;;;5033258;28;20491;-65
2022/09/01 02:10:25;;;;;;;28.10;25.10;;;14.00;99.90;;;;;;5033113;28;20457;-65
2022/09/01 02:12:52;;;;;;;26.57;23.87;;;14.00;99.90;;;;;;5032838;28;20487;-65
2022/09/01 02:15:20;;;;;;;25.00;22.60;;;14.00;99.90;;;;;;5032877;28;20483;-65
2022/09/01 02:17:47;;;;;;;25.70;23.20;;;14.00;99.90;;;;;;5032896;28;20455;-65
2022/09/01 02:20:15;;;;;;;26.90;24.20;;;13.90;99.90;;;;;;5032596;28;20511;-65
2022/09/01 02:22:44;;;;;;;27.50;24.80;;;13.80;99.90;;;;;;5032595;28;20546;-65
2022/09/01 02:25:15;;;;;;;27.07;24.47;;;13.80;99.90;;;;;;5032732;28;20530;-63
2022/09/01 02:27:42;;;;;;;29.07;26.23;;;13.80;99.90;;;;;;5032798;28;20448;-64
2022/09/01 02:30:11;;;;;;;30.80;22.60;;;13.80;99.90;;;;;;5032867;28;20448;-65
2022/09/01 02:32:40;;;;;;;27.80;24.20;;;13.80;99.90;;;;;;5032635;28;20516;-64
2022/09/01 02:35:08;;;;;;;25.57;23.03;;;13.80;99.90;;;;;;5032874;28;20449;-64
2022/09/01 02:37:38;;;;;;;24.47;22.10;;;13.80;99.90;;;;;;5032620;28;20516;-64
2022/09/01 02:40:08;;;;;;;25.93;23.33;;;13.80;99.90;;;;;;5032585;28;20947;-64
2022/09/01 02:42:39;;;;;;;24.60;22.30;;;13.80;99.90;;;;;;5032057;28;20476;-65
2022/09/01 02:45:15;;;;;;;24.37;22.03;;;13.80;99.90;;;;;;5031754;28;21036;-64
2022/09/01 02:47:45;;;;;;;25.07;22.57;;;13.70;99.90;;;;;;5032352;28;20511;-64
2022/09/01 02:50:15;;;;;;;25.00;22.60;;;13.70;99.90;;;;;;5032295;28;20488;-65
2022/09/01 02:52:43;;;;;;;27.20;24.40;;;13.70;99.90;;;;;;5031837;28;20469;-64
2022/09/01 02:55:10;;;;;;;27.40;24.70;;;13.70;99.90;;;;;;5032097;28;20500;-65
2022/09/01 02:57:37;;;;;;;26.27;23.33;;;13.60;99.90;;;;;;5031963;28;20453;-64
2022/09/01 03:00:19;;;;;;;25.57;22.97;;;13.60;99.90;;;;;;5032120;28;20544;-64
2022/09/01 03:02:50;;;;;;;29.00;26.20;;;13.60;99.90;;;;;;5031633;28;20472;-65
2022/09/01 03:05:24;;;;;;;25.87;23.30;;;13.60;99.90;;;;;;5031946;28;20496;-64
2022/09/01 03:07:55;;;;;;;28.00;24.40;;;13.70;99.90;;;;;;5031849;28;20453;-64
2022/09/01 03:10:25;;;;;;;26.13;23.50;;;13.70;99.90;;;;;;5032252;28;20449;-65
2022/09/01 03:12:53;;;;;;;27.53;24.80;;;13.70;99.90;;;;;;5031777;28;20913;-65
2022/09/01 03:15:20;;;;;;;28.13;25.20;;;13.60;99.90;;;;;;5031833;28;20835;-65
2022/09/01 03:17:48;;;;;;;25.37;22.63;;;13.60;99.90;;;;;;5031877;28;20452;-65
2022/09/01 03:20:18;;;;;;;27.03;24.23;;;13.60;99.90;;;;;;5031485;28;20459;-65
2022/09/01 03:22:46;;;;;;;28.57;25.67;;;13.60;99.90;;;;;;5031314;28;20491;-64
2022/09/01 03:25:13;;;;;;;28.10;25.10;;;13.60;99.90;;;;;;5031433;28;20485;-65
2022/09/01 03:27:40;;;;;;;29.67;26.67;;;13.60;99.90;;;;;;5031674;28;20449;-64
2022/09/01 03:30:07;;;;;;;29.50;26.40;;;13.50;99.90;;;;;;5031415;28;21006;-65
2022/09/01 03:32:34;;;;;;;30.07;27.00;;;13.50;99.90;;;;;;5031268;28;20465;-65
2022/09/01 03:35:03;;;;;;;30.27;27.00;;;13.50;99.90;;;;;;5031338;28;20441;-65
2022/09/01 03:37:30;;;;;;;25.73;23.33;;;13.40;99.90;;;;;;5031428;28;20460;-65
2022/09/01 03:39:58;;;;;;;27.90;23.90;;;13.40;99.90;;;;;;5031260;28;20449;-65
2022/09/01 03:42:28;;;;;;;28.03;25.23;;;13.40;99.90;;;;;;5031141;28;20511;-64
2022/09/01 03:44:55;;;;;;;27.53;24.80;;;13.30;99.90;;;;;;5031282;28;20531;-65
2022/09/01 03:47:23;;;;;;;29.30;26.10;;;13.30;99.90;;;;;;5031153;28;20536;-65
2022/09/01 03:49:50;;;;;;;27.87;24.97;;;13.30;99.90;;;;;;5031094;28;20459;-66
2022/09/01 03:52:18;;;;;;;30.33;26.97;;;13.40;99.90;;;;;;5030596;28;20445;-64
2022/09/01 03:54:45;;;;;;;29.83;26.63;;;13.30;99.90;;;;;;5031131;28;20472;-64
2022/09/01 03:57:12;;;;;;;30.23;26.27;;;13.30;99.90;;;;;;5029973;28;21122;-65
2022/09/01 03:59:42;;;;;;;29.67;26.67;;;13.40;99.90;;;;;;5030962;28;20806;-64
2022/09/01 04:02:09;;;;;;;30.03;26.60;;;13.30;99.90;;;;;;5030467;28;20445;-65
2022/09/01 04:04:36;;;;;;;29.80;26.80;;;13.30;99.90;;;;;;5030933;28;20468;-65
2022/09/01 04:07:03;;;;;;;29.80;26.60;;;13.30;99.90;;;;;;5030853;28;20452;-65
2022/09/01 04:09:33;;;;;;;30.97;27.77;;;13.30;99.90;;;;;;5030959;28;20457;-64
2022/09/01 04:12:00;;;;;;;30.63;27.10;;;13.30;99.90;;;;;;5030405;28;20464;-65
2022/09/01 04:14:27;;;;;;;29.80;27.00;;;13.40;99.90;;;;;;5030566;28;20840;-65
2022/09/01 04:19:38;;;;;;;29.63;26.43;;;13.50;99.90;;;;;;5029995;28;20428;-65
2022/09/01 04:22:06;;;;;;;28.57;25.60;;;13.50;99.90;;;;;;5030660;28;20449;-65
2022/09/01 04:24:34;;;;;;;30.63;27.43;;;13.40;99.90;;;;;;5030662;28;20567;-65
2022/09/01 04:27:03;;;;;;;29.20;26.10;;;13.30;99.90;;;;;;5030816;28;20452;-66
2022/09/01 04:29:32;;;;;;;29.13;25.63;;;13.30;99.90;;;;;;5030523;28;20499;-66
2022/09/01 04:32:02;;;;;;;31.70;27.43;;;13.20;99.90;;;;;;5029854;28;20461;-65
2022/09/01 04:34:35;;;;;;;30.50;27.50;;;13.30;99.90;;;;;;5029975;28;20473;-65
2022/09/01 04:37:04;;;;;;;29.17;26.07;;;13.30;99.90;;;;;;5030145;28;20488;-65
2022/09/01 04:39:31;;;;;;;31.57;26.83;;;13.40;99.90;;;;;;5029955;28;20596;-64
2022/09/01 04:41:59;;;;;;;31.20;28.00;;;13.40;99.90;;;;;;5029400;28;20452;-66
2022/09/01 04:44:26;;;;;;;29.30;25.70;;;13.40;99.90;;;;;;5029836;28;20473;-66
2022/09/01 04:46:54;;;;;;;28.77;24.87;;;13.30;99.90;;;;;;5030187;28;20999;-65
2022/09/01 04:49:25;;;;;;;25.93;23.30;;;13.30;99.90;;;;;;5030019;28;20799;-66
2022/09/01 04:51:53;;;;;;;31.50;27.17;;;13.30;99.90;;;;;;5029716;28;20934;-66
2022/09/01 04:54:21;;;;;;;29.17;26.20;;;13.30;99.90;;;;;;5029720;28;20483;-65
2022/09/01 04:56:51;;;;;;;31.30;27.47;;;13.30;99.90;;;;;;5029600;28;20532;-65
2022/09/01 04:59:21;;;;;;;30.87;25.63;;;13.30;99.90;;;;;;5030034;28;20472;-65
2022/09/01 05:01:49;;;;;;;28.97;26.00;;;13.30;99.90;;;;;;5029328;28;20485;-66
2022/09/01 05:04:19;;;;;;;28.97;26.00;;;13.30;99.90;;;;;;5029850;28;20556;-64
2022/09/01 05:06:49;;;;;;;27.00;24.13;;;13.30;99.90;;;;;;5029634;28;20547;-65
2022/09/01 05:09:17;;;;;;;29.43;26.53;;;13.30;99.90;;;;;;5029503;28;20997;-65
2022/09/01 05:11:48;;;;;;;28.60;25.80;;;13.30;99.90;;;;;;5029503;28;20448;-66
2022/09/01 05:14:17;;;;;;;27.43;24.60;;;13.40;99.90;;;;;;5029786;28;20472;-66
2022/09/01 05:16:46;;;;;;;28.80;25.80;;;13.40;99.90;;;;;;5029609;28;20506;-66
2022/09/01 05:19:14;;;;;;;30.63;27.50;;;13.40;99.90;;;;;;5029710;28;20829;-65
2022/09/01 05:21:44;;;;;;;30.77;27.70;;;13.50;99.90;;;;;;5029316;28;20519;-66
2022/09/01 05:24:13;;;;;;;30.93;27.63;;;13.50;99.90;;;;;;5029487;28;21115;-66
2022/09/01 05:26:42;;;;;;;30.30;27.20;;;13.50;99.90;;;;;;5029438;28;21007;-64
2022/09/01 05:29:12;;;;;;;29.93;26.90;;;13.50;99.90;;;;;;5029683;28;20453;-68
2022/09/01 05:31:40;;;;;;;30.40;24.90;;;13.50;99.90;;;;;;5029693;28;20510;-65
2022/09/01 05:34:09;;;;;;;32.03;26.73;;;13.60;99.90;;;;;;5029264;28;20465;-66
2022/09/01 05:36:37;;;;;;;28.90;25.90;;;13.60;99.90;;;;;;5029763;28;20935;-66
2022/09/01 05:39:06;;;;;;;28.60;25.60;;;13.60;99.90;;;;;;5029481;28;20499;-65
2022/09/01 05:41:34;;;;;;;28.07;25.17;;;13.60;99.90;;;;;;5028650;28;20449;-65
2022/09/01 05:44:05;;;;;;;28.63;25.57;;;13.60;99.90;;;;;;5027804;28;20504;-65
2022/09/01 05:46:32;;;;;;;29.60;26.00;;;13.60;99.90;;;;;;5029193;28;21041;-65
2022/09/01 05:48:59;;;;;;;29.33;26.07;;;13.70;99.90;;;;;;5029355;28;20844;-65
2022/09/01 05:51:34;;;;;;;31.23;24.80;;;13.70;99.90;;;;;;5028324;28;20943;-65
2022/09/01 05:54:01;;;;;;;30.77;27.57;;;13.70;99.90;;;;;;5029332;28;20484;-65
2022/09/01 05:56:29;;;;;;;28.63;25.60;;;13.70;99.90;;;;;;5030113;28;20532;-65
2022/09/01 05:58:58;;;;;;;31.77;28.57;;;13.70;99.90;;;;;;5030023;28;20429;-66
2022/09/01 06:01:31;;;;;;;28.13;25.27;;;13.80;99.90;;;;;;5029694;28;20539;-65
2022/09/01 06:03:58;;;;;;;28.90;25.80;;;13.80;99.90;;;;;;5029522;28;20469;-66
2022/09/01 06:06:31;;;;;;;29.83;26.63;;;13.90;99.90;;;;;;5029083;28;21021;-65
2022/09/01 06:08:58;;;;;;;32.60;27.07;;;14.00;99.90;;;;;;5029430;28;20445;-66
2022/09/01 06:11:26;;;;;;;29.83;26.70;;;14.00;99.90;;;;;;5029264;28;20528;-65
2022/09/01 06:13:55;;;;;;;30.90;27.57;;;14.10;99.90;;;;;;5029000;28;20460;-66
2022/09/01 06:16:23;;;;;;;29.47;26.37;;;14.10;99.90;;;;;;5029641;28;20504;-66
2022/09/01 06:18:52;;;;;;;31.73;28.37;;;14.20;99.90;;;;;;5029749;28;20449;-66
2022/09/01 06:21:21;;;;;;;32.33;26.63;;;14.20;99.90;;;;;;5033269;28;20815;-67
2022/09/01 06:23:51;;;;;;;31.43;28.13;;;14.20;99.90;;;;;;5032111;28;20471;-65
2022/09/01 06:26:19;;;;;;;29.10;26.10;;;14.40;99.90;;;;;;5032585;28;20519;-66
2022/09/01 06:28:46;;;;;;;30.17;27.07;;;14.50;99.90;;;;;;5032608;28;20863;-66
2022/09/01 06:31:16;;;;;;;30.43;27.23;;;14.60;99.90;;;;;;5032573;28;20446;-65
2022/09/01 06:33:43;;;;;;;31.83;28.27;;;14.60;99.90;;;;;;5031884;28;21068;-65
2022/09/01 06:36:10;;;;;;;35.60;27.00;;;14.70;99.90;;;;;;5032424;28;20444;-66
2022/09/01 06:38:38;;;;;;;32.30;28.97;;;14.70;99.90;;;;;;5032105;28;20452;-66
2022/09/01 06:41:08;;;;;;;31.90;27.13;;;14.90;99.90;;;;;;5032166;28;20457;-66
2022/09/01 06:43:35;;;;;;;31.90;28.43;;;14.90;99.90;;;;;;5031875;28;21041;-66
2022/09/01 06:46:02;;;;;;;33.73;27.80;;;15.00;99.90;;;;;;5032152;28;20508;-66
2022/09/01 06:48:30;;;;;;;31.90;28.53;;;15.10;99.90;;;;;;5032326;28;20451;-67
2022/09/01 06:51:00;;;;;;;30.30;27.30;;;15.30;99.90;;;;;;5031899;28;20511;-66
2022/09/01 06:53:27;;;;;;;28.30;25.37;;;15.50;99.90;;;;;;5031548;28;20481;-68
2022/09/01 06:55:55;;;;;;;27.43;24.53;;;15.50;99.90;;;;;;5032049;28;20441;-67
2022/09/01 06:58:24;;;;;;;31.00;25.03;;;15.70;99.90;;;;;;5032085;28;21125;-67
2022/09/01 07:00:51;;;;;;;28.77;25.63;;;15.90;99.90;;;;;;5031858;28;20950;-67
2022/09/01 07:03:17;;;;;;;26.40;22.03;;;16.00;99.90;;;;;;5031560;28;20477;-67
2022/09/01 07:05:46;;;;;;;25.30;22.63;;;16.10;99.90;;;;;;5031526;28;20485;-67
2022/09/01 07:08:18;;;;;;;25.67;23.07;;;16.30;99.90;;;;;;5031813;28;20445;-67
2022/09/01 07:10:48;;;;;;;27.07;23.33;;;16.40;99.90;;;;;;5031382;28;20516;-66
2022/09/01 07:13:18;;;;;;;25.23;22.53;;;16.60;99.90;;;;;;5023454;28;20481;-70
2022/09/01 07:15:48;;;;;;;24.83;22.33;;;16.90;99.90;;;;;;5021628;28;20449;-71
2022/09/01 07:18:16;;;;;;;23.27;21.00;;;17.20;99.90;;;;;;5030044;28;20459;-73
2022/09/01 07:20:43;;;;;;;21.90;19.70;;;17.60;99.90;;;;;;5019597;28;20523;-66
2022/09/01 07:23:11;;;;;;;22.63;20.43;;;17.80;99.90;;;;;;5028527;28;20476;-66
2022/09/01 07:25:42;;;;;;;21.20;19.13;;;18.10;99.90;;;;;;5028670;28;20460;-67
2022/09/01 07:28:11;;;;;;;21.23;17.90;;;18.20;99.90;;;;;;5031208;28;20448;-66
2022/09/01 07:30:42;;;;;;;21.40;19.37;;;18.30;99.90;;;;;;5031398;28;20599;-66
2022/09/01 07:33:12;;;;;;;21.87;19.87;;;18.40;99.90;;;;;;5030431;28;20556;-68
2022/09/01 07:35:40;;;;;;;19.77;17.77;;;18.30;99.90;;;;;;5031806;28;20806;-68
2022/09/01 07:38:08;;;;;;;18.10;16.33;;;18.30;99.90;;;;;;5031459;28;20836;-65
2022/09/01 07:40:37;;;;;;;19.63;17.30;;;18.40;99.90;;;;;;5031183;28;20460;-65
2022/09/01 07:43:08;;;;;;;23.73;17.50;;;18.50;99.90;;;;;;5030888;28;20837;-66
2022/09/01 07:45:37;;;;;;;17.73;16.10;;;18.80;99.90;;;;;;5030758;28;20456;-66
2022/09/01 07:48:06;;;;;;;16.90;15.20;;;19.00;99.90;;;;;;5032127;28;20547;-66
2022/09/01 07:50:37;;;;;;;15.40;13.80;;;19.30;99.90;;;;;;5031639;28;20453;-66
2022/09/01 07:53:04;;;;;;;14.30;12.90;;;19.50;99.90;;;;;;5030424;28;20488;-67
2022/09/01 07:55:31;;;;;;;13.97;12.77;;;19.60;99.90;;;;;;5031386;28;20875;-65
2022/09/01 07:57:58;;;;;;;14.03;12.63;;;19.60;99.90;;;;;;5032817;28;20507;-73
2022/09/01 08:00:27;;;;;;;14.60;13.20;;;19.70;99.90;;;;;;5029337;28;20522;-68
2022/09/01 08:02:54;;;;;;;13.70;12.50;;;19.90;99.90;;;;;;5029426;28;20449;-66
2022/09/01 08:05:25;;;;;;;14.87;13.53;;;20.10;99.90;;;;;;5018709;28;20229;-66
2022/09/01 08:07:53;;;;;;;13.50;12.20;;;20.30;99.90;;;;;;5016679;28;20482;-67
2022/09/01 08:10:20;;;;;;;13.70;12.37;;;20.60;99.90;;;;;;5022826;28;20457;-67
2022/09/01 08:12:47;;;;;;;13.87;12.57;;;20.70;99.90;;;;;;5024012;28;20491;-66
2022/09/01 08:15:15;;;;;;;14.97;13.47;;;20.70;99.90;;;;;;5024792;28;20577;-67
2022/09/01 08:17:43;;;;;;;15.10;13.70;;;20.40;99.90;;;;;;5023793;28;20859;-66
2022/09/01 08:20:11;;;;;;;13.63;12.33;;;20.50;99.90;;;;;;5024730;28;20445;-64
2022/09/01 08:22:38;;;;;;;11.37;10.27;;;20.70;99.90;;;;;;5020460;28;20464;-68
2022/09/01 08:25:08;;;;;;;13.33;12.03;;;21.10;99.90;;;;;;5022705;28;20453;-67
2022/09/01 08:27:37;;;;;;;13.20;11.90;;;21.50;99.90;;;;;;5024122;28;20491;-67
2022/09/01 08:30:08;;;;;;;12.93;11.80;;;21.90;99.90;;;;;;5019072;28;20478;-67
2022/09/01 08:32:36;;;;;;;12.13;11.13;;;22.30;99.90;;;;;;5017607;28;20474;-68
2022/09/01 08:35:03;;;;;;;10.13;9.20;;;22.60;99.90;;;;;;5026140;28;20943;-67
2022/09/01 08:37:31;;;;;;;10.63;9.63;;;23.00;99.90;;;;;;5028008;28;20443;-67
2022/09/01 08:39:58;;;;;;;11.90;10.90;;;23.50;99.90;;;;;;5027742;28;20448;-68
2022/09/01 08:42:42;;;;;;;11.37;10.27;;;23.50;99.90;;;;;;5026059;28;20500;-64
2022/09/01 08:45:15;;;;;;;10.73;9.80;;;23.60;99.90;;;;;;5028217;28;20976;-68
2022/09/01 08:47:42;;;;;;;9.73;8.83;;;23.80;99.90;;;;;;5028231;28;20492;-65
2022/09/01 08:50:11;;;;;;;10.47;9.40;;;23.90;99.90;;;;;;5027538;28;20447;-65
2022/09/01 08:52:43;;;;;;;8.87;8.17;;;24.20;99.90;;;;;;5024516;28;20522;-66
2022/09/01 08:55:15;;;;;;;9.50;8.70;;;24.50;99.90;;;;;;5029422;28;20453;-66
2022/09/01 08:57:46;;;;;;;6.90;6.20;;;24.70;99.90;;;;;;5024775;28;20443;-65
2022/09/01 09:00:17;;;;;;;7.40;6.63;;;24.30;99.90;;;;;;5026979;28;21012;-65
2022/09/01 09:02:53;;;;;;;7.00;6.27;;;24.40;99.90;;;;;;5023503;28;20876;-66
2022/09/01 09:05:32;;;;;;;6.73;6.13;;;24.40;99.90;;;;;;5025764;28;20444;-66
2022/09/01 09:08:29;;;;;;;6.80;6.30;;;24.40;99.90;;;;;;5025793;28;21214;-65
2022/09/01 09:10:59;;;;;;;8.57;7.87;;;24.60;99.90;;;;;;5025030;28;20452;-66
2022/09/01 09:13:38;;;;;;;6.80;6.30;;;24.20;99.90;;;;;;5024971;28;20521;-66
2022/09/01 09:16:09;;;;;;;6.77;6.17;;;24.20;99.90;;;;;;5028285;28;20445;-65
2022/09/01 09:18:42;;;;;;;7.57;7.00;;;24.30;99.90;;;;;;5024322;28;20467;-66
2022/09/01 09:21:15;;;;;;;8.70;8.00;;;24.20;99.90;;;;;;5018625;28;20457;-66
2022/09/01 09:23:46;;;;;;;7.20;6.70;;;24.00;99.90;;;;;;5024125;28;20473;-65
2022/09/01 09:26:13;;;;;;;6.17;5.67;;;24.00;99.90;;;;;;5029543;28;20450;-66
2022/09/01 09:28:41;;;;;;;6.60;5.97;;;23.70;99.90;;;;;;5028003;28;20502;-66
2022/09/01 09:31:31;;;;;;;7.03;6.47;;;23.60;99.90;;;;;;5027546;28;20452;-66
2022/09/01 09:33:59;;;;;;;7.50;6.83;;;23.50;99.90;;;;;;5023381;28;20848;-66
2022/09/01 09:36:32;;;;;;;6.50;5.90;;;23.80;99.90;;;;;;5028677;28;20453;-66
2022/09/01 09:39:15;;;;;;;7.00;6.40;;;23.90;99.90;;;;;;5027582;28;20460;-65
2022/09/01 09:41:43;;;;;;;7.57;6.77;;;23.90;99.90;;;;;;5024138;28;20453;-64
2022/09/01 09:44:25;;;;;;;6.43;5.80;;;23.80;99.90;;;;;;5025810;28;20471;-67
2022/09/01 09:46:52;;;;;;;6.70;6.20;;;23.60;99.90;;;;;;5020919;28;20487;-67
2022/09/01 09:49:23;;;;;;;7.33;6.10;;;23.50;99.90;;;;;;5027301;28;20970;-66
2022/09/01 09:51:52;;;;;;;6.67;6.07;;;23.40;99.90;;;;;;5028953;28;20544;-66
2022/09/01 09:54:23;;;;;;;6.27;5.70;;;23.50;99.90;;;;;;5028630;28;20484;-66
2022/09/01 09:57:04;;;;;;;7.33;6.63;;;23.80;99.90;;;;;;5032756;28;20448;-66
2022/09/01 09:59:35;;;;;;;6.63;6.03;;;24.10;99.90;;;;;;5032039;28;20459;-66
2022/09/01 10:02:24;;;;;;;5.90;5.27;;;24.40;99.90;;;;;;5032471;28;21182;-66
2022/09/01 10:04:51;;;;;;;8.03;5.50;;;24.60;99.90;;;;;;5013547;28;20507;-66
2022/09/01 10:07:39;;;;;;;5.87;5.27;;;24.60;99.90;;;;;;5013246;28;20481;-67
2022/09/01 10:10:24;;;;;;;4.57;4.27;;;24.80;99.90;;;;;;5006359;28;20548;-66
2022/09/01 10:12:52;;;;;;;5.37;4.83;;;25.20;99.90;;;;;;5026888;28;21020;-67
2022/09/01 10:15:23;;;;;;;4.93;4.43;;;25.50;99.90;;;;;;5029239;28;20479;-65
2022/09/01 10:17:52;;;;;;;5.03;4.53;;;25.60;99.90;;;;;;5025827;28;20476;-67
2022/09/01 10:20:21;;;;;;;5.20;4.80;;;25.80;99.90;;;;;;5021734;28;20452;-66
2022/09/01 10:22:49;;;;;;;6.10;5.50;;;26.10;99.90;;;;;;5024414;28;20874;-67
2022/09/01 10:25:19;;;;;;;5.20;4.80;;;26.00;99.50;;;;;;5030539;28;20457;-65
2022/09/01 10:27:49;;;;;;;5.40;5.00;;;26.10;99.90;;;;;;5031874;28;20486;-65
2022/09/01 10:30:20;;;;;;;5.00;4.53;;;26.10;99.50;;;;;;5030505;28;21125;-65
2022/09/01 10:32:50;;;;;;;5.43;5.03;;;26.20;99.50;;;;;;5027294;28;20474;-65
2022/09/01 10:35:22;;;;;;;5.13;4.70;;;26.30;99.50;;;;;;5027155;28;20448;-65
2022/09/01 10:37:50;;;;;;;4.60;4.20;;;26.40;99.70;;;;;;5030062;28;20463;-67
2022/09/01 10:40:37;;;;;;;5.83;4.83;;;26.50;98.60;;;;;;5032363;28;20437;-65
2022/09/01 10:43:41;;;;;;;5.40;4.97;;;26.40;99.20;;;;;;5030038;28;20472;-65
2022/09/01 10:46:46;;;;;;;5.90;5.40;;;26.30;98.30;;;;;;5024679;28;20471;-65
2022/09/01 10:49:49;;;;;;;5.53;5.03;;;25.80;98.80;;;;;;5028278;28;20454;-65
2022/09/01 10:52:49;;;;;;;5.43;4.93;;;25.80;99.90;;;;;;5025794;28;20451;-63
2022/09/01 10:55:18;;;;;;;4.77;4.47;;;25.80;99.90;;;;;;5023852;28;20460;-66
2022/09/01 10:57:53;;;;;;;4.97;4.57;;;26.10;99.90;;;;;;5028343;28;20460;-68
2022/09/01 11:00:46;;;;;;;4.70;4.30;;;26.70;98.80;;;;;;5030786;28;20448;-66
2022/09/01 11:03:49;;;;;;;4.30;3.90;;;28.10;97.40;;;;;;5031155;28;20465;-66
2022/09/01 11:07:05;;;;;;;5.43;4.93;;;29.00;95.90;;;;;;5029538;28;20499;-66
2022/09/01 11:09:35;;;;;;;4.67;4.30;;;29.50;92.90;;;;;;5029390;28;20946;-67
2022/09/01 11:12:34;;;;;;;5.67;4.97;;;29.60;92.80;;;;;;5031714;28;20947;-66
2022/09/01 11:15:05;;;;;;;4.10;3.80;;;29.60;92.30;;;;;;5012968;28;20453;-67
2022/09/01 11:17:35;;;;;;;4.80;4.40;;;29.30;93.80;;;;;;5029590;28;20447;-66
2022/09/01 11:20:08;;;;;;;4.50;4.20;;;29.30;92.00;;;;;;5027506;28;20481;-66
2022/09/01 11:22:40;;;;;;;4.97;4.20;;;29.40;91.70;;;;;;5029381;28;21916;-66
2022/09/01 11:25:33;;;;;;;4.40;4.10;;;29.60;91.70;;;;;;5030324;28;20457;-66
2022/09/01 11:28:26;;;;;;;3.90;3.60;;;30.10;90.40;;;;;;5029538;28;20488;-66
2022/09/01 11:30:57;;;;;;;4.13;3.83;;;30.70;89.90;;;;;;5029912;28;20517;-66
2022/09/01 11:33:40;;;;;;;3.90;3.60;;;31.40;88.50;;;;;;5029689;28;20907;-67
2022/09/01 11:36:17;;;;;;;4.73;4.33;;;32.20;86.00;;;;;;5029011;28;20445;-65
2022/09/01 11:38:50;;;;;;;4.70;4.30;;;32.40;81.50;;;;;;5022311;28;20456;-66
2022/09/01 11:41:26;;;;;;;4.17;3.87;;;32.30;83.60;;;;;;5029743;28;20445;-66
2022/09/01 11:43:57;;;;;;;4.23;3.93;;;31.70;82.50;;;;;;5030613;28;20465;-66
2022/09/01 11:46:28;;;;;;;4.57;4.00;;;31.80;84.40;;;;;;5031003;28;20448;-65
2022/09/01 11:48:57;;;;;;;3.93;3.60;;;32.30;81.70;;;;;;5029743;28;20484;-66
2022/09/01 11:51:25;;;;;;;3.90;3.60;;;32.80;80.10;;;;;;5029931;28;20938;-66
2022/09/01 11:53:59;;;;;;;3.80;3.50;;;33.30;77.50;;;;;;5030439;28;20483;-65
2022/09/01 11:56:27;;;;;;;4.23;3.93;;;33.60;74.90;;;;;;5030942;28;20453;-64
2022/09/01 11:58:54;;;;;;;4.30;3.90;;;34.10;71.80;;;;;;5031437;28;20445;-65
2022/09/01 12:01:23;;;;;;;4.00;3.60;;;34.50;69.60;;;;;;5031415;28;20475;-66
2022/09/01 12:03:51;;;;;;;3.80;3.50;;;34.90;70.00;;;;;;5030761;28;20487;-66
2022/09/01 12:06:24;;;;;;;4.20;3.90;;;34.60;68.50;;;;;;5031004;28;20459;-65
2022/09/01 12:09:00;;;;;;;4.50;3.50;;;34.90;67.70;;;;;;5031116;28;20488;-66
2022/09/01 12:11:30;;;;;;;3.70;3.40;;;35.30;68.50;;;;;;5031382;28;20526;-67
2022/09/01 12:13:59;;;;;;;3.27;2.97;;;35.10;65.80;;;;;;5030790;28;20461;-66
2022/09/01 12:16:27;;;;;;;4.03;3.37;;;35.30;66.70;;;;;;5030651;28;20823;-66
2022/09/01 12:18:57;;;;;;;3.70;3.50;;;35.90;64.40;;;;;;5030181;28;20451;-66
2022/09/01 12:21:26;;;;;;;3.63;3.33;;;36.40;61.80;;;;;;5030848;28;20507;-66
2022/09/01 12:23:54;;;;;;;5.17;3.50;;;36.50;62.50;;;;;;5030384;28;20544;-65
2022/09/01 12:26:25;;;;;;;3.90;3.60;;;36.60;60.30;;;;;;5030828;28;20463;-65
2022/09/01 12:28:53;;;;;;;4.20;3.90;;;36.80;58.10;;;;;;5030558;28;20530;-66
2022/09/01 12:31:23;;;;;;;3.30;3.00;;;34.50;61.80;;;;;;5030747;28;20445;-66
2022/09/01 12:33:52;;;;;;;4.93;3.70;;;33.00;64.70;;;;;;5030233;28;20469;-65
2022/09/01 12:36:25;;;;;;;4.87;4.57;;;32.00;68.80;;;;;;5030450;28;20459;-66
2022/09/01 12:38:53;;;;;;;5.50;3.80;;;31.10;70.70;;;;;;5030263;28;20441;-65
2022/09/01 12:41:34;;;;;;;4.10;3.70;;;30.30;73.20;;;;;;5030326;28;20449;-66
2022/09/01 12:44:27;;;;;;;4.60;3.87;;;31.30;75.00;;;;;;5030284;28;20480;-66
2022/09/01 12:46:55;;;;;;;2.97;2.77;;;33.50;68.10;;;;;;5030387;28;20445;-64
2022/09/01 12:49:25;;;;;;;4.10;3.80;;;35.10;63.50;;;;;;5030116;28;20492;-66
2022/09/01 12:52:09;;;;;;;3.90;3.60;;;35.90;62.60;;;;;;5029744;28;20456;-66
2022/09/01 12:54:37;;;;;;;3.80;3.20;;;36.80;61.70;;;;;;5030102;28;20479;-65
2022/09/01 12:57:06;;;;;;;4.10;3.80;;;37.20;57.90;;;;;;5030335;28;20463;-65